createdAt,value
2023-07-25T00:00:42.594Z,7.00
2023-07-25T00:01:42.616Z,7.00
2023-07-25T00:02:42.766Z,6.80
2023-07-25T00:03:42.638Z,6.80
2023-07-25T00:04:42.609Z,7.10
2023-07-25T00:05:42.532Z,7.10
2023-07-25T00:06:42.500Z,7.00
2023-07-25T00:07:42.461Z,6.90
2023-07-25T00:08:43.811Z,6.80
2023-07-25T00:09:42.499Z,6.70
2023-07-25T00:10:42.467Z,6.90
2023-07-25T00:11:42.433Z,6.20
2023-07-25T00:12:42.403Z,6.20
2023-07-25T00:13:42.488Z,6.50
2023-07-25T00:14:42.493Z,6.50
2023-07-25T00:15:42.390Z,6.70
2023-07-25T00:16:42.437Z,7.40
2023-07-25T00:17:42.400Z,7.80
2023-07-25T00:18:43.364Z,7.00
2023-07-25T00:19:42.377Z,6.40
2023-07-25T00:20:42.375Z,6.90
2023-07-25T00:21:42.349Z,6.30
2023-07-25T00:22:42.370Z,6.00
2023-07-25T00:23:42.310Z,6.60
2023-07-25T00:24:42.370Z,6.70
2023-07-25T00:25:42.385Z,8.70
2023-07-25T00:26:42.283Z,7.10
2023-07-25T00:27:42.276Z,6.10
2023-07-25T00:28:44.139Z,6.80
2023-07-25T00:29:42.348Z,6.10
2023-07-25T00:30:42.255Z,6.40
2023-07-25T00:31:42.240Z,6.70
2023-07-25T00:32:42.299Z,7.10
2023-07-25T00:33:42.210Z,5.90
2023-07-25T00:34:42.225Z,7.00
2023-07-25T00:35:42.276Z,6.30
2023-07-25T00:36:42.261Z,7.60
2023-07-25T00:37:42.191Z,6.60
2023-07-25T00:38:42.280Z,5.90
2023-07-25T00:39:42.172Z,6.40
2023-07-25T00:40:42.243Z,6.90
2023-07-25T00:41:42.202Z,6.50
2023-07-25T00:42:42.171Z,5.90
2023-07-25T00:43:42.894Z,6.70
2023-07-25T00:44:42.133Z,6.50
2023-07-25T00:45:42.155Z,6.50
2023-07-25T00:46:42.118Z,6.80
2023-07-25T00:47:42.154Z,6.60
2023-07-25T00:48:42.244Z,6.90
2023-07-25T00:49:42.069Z,6.90
2023-07-25T00:50:42.080Z,6.10
2023-07-25T00:51:42.291Z,6.10
2023-07-25T00:52:42.680Z,6.30
2023-07-25T00:53:42.039Z,6.30
2023-07-25T00:54:42.018Z,6.40
2023-07-25T00:55:42.057Z,6.10
2023-07-25T00:56:42.098Z,6.10
2023-07-25T00:57:42.027Z,5.80
2023-07-25T00:58:43.389Z,5.40
2023-07-25T00:59:42.035Z,6.50
2023-07-25T01:00:43.639Z,5.90
2023-07-25T01:01:42.017Z,6.20
2023-07-25T01:02:41.992Z,7.70
2023-07-25T01:03:42.110Z,6.30
2023-07-25T01:04:41.995Z,6.00
2023-07-25T01:05:41.872Z,6.20
2023-07-25T01:06:41.909Z,6.50
2023-07-25T01:07:41.875Z,5.90
2023-07-25T01:08:43.452Z,6.70
2023-07-25T01:09:41.894Z,5.80
2023-07-25T01:10:42.639Z,6.40
2023-07-25T01:11:41.847Z,5.80
2023-07-25T01:12:41.832Z,6.80
2023-07-25T01:13:41.802Z,6.70
2023-07-25T01:14:41.830Z,5.80
2023-07-25T01:15:41.856Z,6.20
2023-07-25T01:16:41.807Z,6.40
2023-07-25T01:17:41.846Z,6.50
2023-07-25T01:18:41.885Z,6.40
2023-07-25T01:19:41.753Z,6.90
2023-07-25T01:20:41.858Z,5.90
2023-07-25T01:21:41.747Z,7.20
2023-07-25T01:22:41.715Z,7.10
2023-07-25T01:23:41.763Z,6.50
2023-07-25T01:24:41.752Z,6.80
2023-07-25T01:25:41.746Z,6.20
2023-07-25T01:26:41.709Z,6.00
2023-07-25T01:27:41.676Z,6.70
2023-07-25T01:28:44.467Z,6.30
2023-07-25T01:29:41.781Z,6.20
2023-07-25T01:30:41.662Z,6.20
2023-07-25T01:31:41.653Z,6.90
2023-07-25T01:32:41.707Z,5.90
2023-07-25T01:33:41.783Z,6.10
2023-07-25T01:34:41.663Z,6.30
2023-07-25T01:35:41.620Z,6.50
2023-07-25T01:36:41.589Z,6.60
2023-07-25T01:37:41.713Z,6.90
2023-07-25T01:38:42.447Z,6.30
2023-07-25T01:39:41.754Z,6.40
2023-07-25T01:40:41.571Z,5.90
2023-07-25T01:41:41.588Z,6.20
2023-07-25T01:42:41.616Z,6.30
2023-07-25T01:43:41.571Z,6.40
2023-07-25T01:44:41.537Z,6.20
2023-07-25T01:45:41.639Z,6.00
2023-07-25T01:46:41.633Z,6.80
2023-07-25T01:47:41.627Z,6.20
2023-07-25T01:48:41.495Z,7.40
2023-07-25T01:49:41.538Z,6.40
2023-07-25T01:50:41.601Z,6.10
2023-07-25T01:51:42.298Z,5.80
2023-07-25T01:52:41.536Z,5.50
2023-07-25T01:53:41.518Z,6.70
2023-07-25T01:54:41.470Z,6.60
2023-07-25T01:55:41.442Z,7.00
2023-07-25T01:56:41.494Z,6.20
2023-07-25T01:57:41.536Z,5.50
2023-07-25T01:58:41.382Z,6.20
2023-07-25T01:59:41.424Z,5.90
2023-07-25T02:00:41.433Z,6.40
2023-07-25T02:01:41.447Z,6.40
2023-07-25T02:02:41.471Z,6.90
2023-07-25T02:03:41.428Z,5.70
2023-07-25T02:04:41.335Z,5.90
2023-07-25T02:05:41.332Z,5.70
2023-07-25T02:06:41.329Z,6.60
2023-07-25T02:07:41.361Z,7.20
2023-07-25T02:08:42.349Z,5.60
2023-07-25T02:09:41.287Z,6.10
2023-07-25T02:10:41.269Z,5.80
2023-07-25T02:11:41.262Z,5.30
2023-07-25T02:12:41.225Z,5.90
2023-07-25T02:13:41.293Z,6.10
2023-07-25T02:14:41.212Z,6.20
2023-07-25T02:15:41.247Z,6.50
2023-07-25T02:16:41.257Z,5.90
2023-07-25T02:17:41.210Z,7.00
2023-07-25T02:18:42.339Z,6.20
2023-07-25T02:19:41.214Z,6.10
2023-07-25T02:20:41.271Z,6.10
2023-07-25T02:21:41.116Z,5.20
2023-07-25T02:22:41.201Z,6.00
2023-07-25T02:23:41.131Z,5.60
2023-07-25T02:24:41.162Z,6.30
2023-07-25T02:25:41.841Z,5.90
2023-07-25T02:26:41.139Z,5.10
2023-07-25T02:27:41.151Z,5.70
2023-07-25T02:28:42.768Z,5.70
2023-07-25T02:29:42.385Z,6.10
2023-07-25T02:30:41.240Z,6.70
2023-07-25T02:31:41.101Z,6.50
2023-07-25T02:32:41.054Z,6.40
2023-07-25T02:33:42.389Z,6.00
2023-07-25T02:34:41.022Z,7.10
2023-07-25T02:35:41.050Z,5.10
2023-07-25T02:36:41.035Z,6.50
2023-07-25T02:37:41.081Z,5.60
2023-07-25T02:38:43.876Z,5.60
2023-07-25T02:39:41.889Z,5.70
2023-07-25T02:40:41.720Z,5.80
2023-07-25T02:41:41.018Z,6.20
2023-07-25T02:42:41.076Z,6.40
2023-07-25T02:43:41.033Z,5.50
2023-07-25T02:44:41.424Z,5.30
2023-07-25T02:45:40.985Z,5.70
2023-07-25T02:46:40.964Z,5.30
2023-07-25T02:47:42.102Z,6.20
2023-07-25T02:48:44.054Z,5.70
2023-07-25T02:49:40.982Z,6.30
2023-07-25T02:50:41.838Z,6.60
2023-07-25T02:51:40.988Z,7.00
2023-07-25T02:52:41.068Z,5.70
2023-07-25T02:53:40.913Z,5.90
2023-07-25T02:54:41.807Z,6.00
2023-07-25T02:55:40.924Z,6.80
2023-07-25T02:56:41.814Z,6.30
2023-07-25T02:57:41.310Z,6.40
2023-07-25T02:58:41.454Z,6.60
2023-07-25T02:59:40.909Z,6.80
2023-07-25T03:00:40.924Z,5.80
2023-07-25T03:01:41.955Z,5.60
2023-07-25T03:02:40.844Z,5.50
2023-07-25T03:03:40.910Z,6.70
2023-07-25T03:04:40.875Z,6.30
2023-07-25T03:05:42.578Z,5.60
2023-07-25T03:06:40.706Z,5.70
2023-07-25T03:07:40.762Z,5.20
2023-07-25T03:08:41.971Z,6.80
2023-07-25T03:09:40.905Z,7.60
2023-07-25T03:10:41.192Z,5.40
2023-07-25T03:11:40.724Z,5.80
2023-07-25T03:12:40.686Z,5.80
2023-07-25T03:13:40.754Z,5.50
2023-07-25T03:14:40.738Z,5.80
2023-07-25T03:15:40.727Z,5.00
2023-07-25T03:16:40.785Z,5.30
2023-07-25T03:17:40.788Z,5.70
2023-07-25T03:18:41.934Z,6.70
2023-07-25T03:19:41.394Z,6.00
2023-07-25T03:20:40.556Z,6.20
2023-07-25T03:21:40.621Z,5.20
2023-07-25T03:22:40.708Z,6.30
2023-07-25T03:23:40.633Z,5.70
2023-07-25T03:24:40.657Z,5.30
2023-07-25T03:25:40.583Z,6.10
2023-07-25T03:26:41.252Z,5.20
2023-07-25T03:27:40.633Z,6.00
2023-07-25T03:28:42.420Z,5.30
2023-07-25T03:29:40.555Z,5.30
2023-07-25T03:30:40.560Z,6.20
2023-07-25T03:31:41.322Z,5.50
2023-07-25T03:32:41.565Z,5.50
2023-07-25T03:33:40.442Z,5.50
2023-07-25T03:34:40.484Z,5.40
2023-07-25T03:35:40.360Z,5.40
2023-07-25T03:36:41.351Z,6.00
2023-07-25T03:37:40.449Z,5.10
2023-07-25T03:38:41.842Z,6.50
2023-07-25T03:39:43.341Z,5.70
2023-07-25T03:40:40.294Z,5.70
2023-07-25T03:41:40.357Z,5.20
2023-07-25T03:42:40.340Z,6.40
2023-07-25T03:43:40.359Z,10.50
2023-07-25T03:44:40.273Z,5.40
2023-07-25T03:45:40.341Z,5.70
2023-07-25T03:46:40.310Z,6.70
2023-07-25T03:47:40.384Z,6.00
2023-07-25T03:48:41.366Z,5.30
2023-07-25T03:49:40.225Z,5.90
2023-07-25T03:50:40.164Z,6.10
2023-07-25T03:51:40.247Z,6.20
2023-07-25T03:52:40.156Z,5.50
2023-07-25T03:53:40.222Z,5.40
2023-07-25T03:54:40.197Z,5.50
2023-07-25T03:55:40.781Z,6.10
2023-07-25T03:56:40.232Z,5.70
2023-07-25T03:57:40.159Z,6.00
2023-07-25T03:58:40.127Z,5.50
2023-07-25T03:59:40.086Z,5.90
2023-07-25T04:00:40.103Z,5.20
2023-07-25T04:01:40.104Z,6.40
2023-07-25T04:02:40.229Z,5.50
2023-07-25T04:03:40.181Z,5.40
2023-07-25T04:04:40.857Z,6.40
2023-07-25T04:05:40.051Z,6.10
2023-07-25T04:06:40.111Z,5.30
2023-07-25T04:07:40.036Z,5.60
2023-07-25T04:08:40.829Z,6.50
2023-07-25T04:09:40.105Z,5.40
2023-07-25T04:10:40.040Z,5.20
2023-07-25T04:11:40.072Z,5.80
2023-07-25T04:12:39.972Z,5.80
2023-07-25T04:13:40.152Z,6.90
2023-07-25T04:14:39.967Z,5.70
2023-07-25T04:15:40.030Z,7.10
2023-07-25T04:16:40.072Z,4.70
2023-07-25T04:17:40.017Z,7.10
2023-07-25T04:18:41.827Z,6.00
2023-07-25T04:19:40.102Z,5.50
2023-07-25T04:20:39.921Z,4.60
2023-07-25T04:21:39.892Z,5.50
2023-07-25T04:22:39.865Z,4.80
2023-07-25T04:23:39.864Z,5.50
2023-07-25T04:24:39.841Z,5.60
2023-07-25T04:25:39.852Z,5.90
2023-07-25T04:26:39.816Z,5.10
2023-07-25T04:27:39.834Z,6.10
2023-07-25T04:28:39.806Z,5.50
2023-07-25T04:29:39.835Z,6.50
2023-07-25T04:30:39.792Z,5.60
2023-07-25T04:31:39.768Z,6.80
2023-07-25T04:32:39.795Z,5.20
2023-07-25T04:33:39.715Z,6.00
2023-07-25T04:34:39.741Z,6.20
2023-07-25T04:35:39.779Z,5.50
2023-07-25T04:36:39.836Z,5.00
2023-07-25T04:37:39.737Z,5.30
2023-07-25T04:38:39.790Z,5.10
2023-07-25T04:39:39.662Z,5.00
2023-07-25T04:40:39.680Z,5.40
2023-07-25T04:41:39.797Z,5.20
2023-07-25T04:42:39.714Z,5.40
2023-07-25T04:43:39.646Z,5.80
2023-07-25T04:44:39.667Z,5.60
2023-07-25T04:45:39.672Z,6.00
2023-07-25T04:46:39.732Z,6.40
2023-07-25T04:47:39.631Z,5.70
2023-07-25T04:48:39.662Z,5.40
2023-07-25T04:49:39.643Z,5.30
2023-07-25T04:50:39.596Z,5.40
2023-07-25T04:51:39.663Z,5.50
2023-07-25T04:52:39.608Z,5.90
2023-07-25T04:53:39.717Z,5.80
2023-07-25T04:54:39.668Z,6.30
2023-07-25T04:55:40.340Z,5.80
2023-07-25T04:56:42.192Z,5.60
2023-07-25T04:57:39.749Z,5.20
2023-07-25T04:58:39.763Z,5.80
2023-07-25T04:59:39.510Z,6.30
2023-07-25T05:00:40.318Z,5.20
2023-07-25T05:01:39.472Z,5.60
2023-07-25T05:02:39.568Z,5.40
2023-07-25T05:03:39.511Z,5.00
2023-07-25T05:04:39.553Z,5.50
2023-07-25T05:05:39.535Z,5.40
2023-07-25T05:06:39.493Z,5.50
2023-07-25T05:07:39.582Z,5.40
2023-07-25T05:08:40.335Z,5.90
2023-07-25T05:09:39.460Z,5.70
2023-07-25T05:10:39.564Z,4.60
2023-07-25T05:11:39.377Z,5.20
2023-07-25T05:12:39.377Z,6.30
2023-07-25T05:13:39.461Z,5.80
2023-07-25T05:14:39.457Z,6.90
2023-07-25T05:15:39.382Z,5.00
2023-07-25T05:16:39.492Z,5.40
2023-07-25T05:17:40.376Z,6.50
2023-07-25T05:18:39.353Z,5.50
2023-07-25T05:19:39.298Z,5.60
2023-07-25T05:20:39.264Z,5.60
2023-07-25T05:21:39.372Z,5.90
2023-07-25T05:22:39.274Z,5.50
2023-07-25T05:23:40.396Z,5.90
2023-07-25T05:24:39.366Z,5.40
2023-07-25T05:25:39.206Z,5.60
2023-07-25T05:26:39.349Z,5.00
2023-07-25T05:27:39.310Z,5.80
2023-07-25T05:28:39.769Z,5.70
2023-07-25T05:29:39.271Z,6.70
2023-07-25T05:30:39.216Z,5.60
2023-07-25T05:31:40.029Z,4.60
2023-07-25T05:32:39.281Z,5.70
2023-07-25T05:33:39.156Z,5.10
2023-07-25T05:34:39.289Z,5.40
2023-07-25T05:35:39.169Z,5.30
2023-07-25T05:36:39.868Z,5.10
2023-07-25T05:37:40.692Z,5.80
2023-07-25T05:38:39.871Z,5.50
2023-07-25T05:39:39.137Z,7.00
2023-07-25T05:40:39.104Z,5.80
2023-07-25T05:41:39.877Z,6.60
2023-07-25T05:42:39.139Z,5.90
2023-07-25T05:43:39.030Z,4.80
2023-07-25T05:44:39.114Z,5.40
2023-07-25T05:45:39.977Z,5.70
2023-07-25T05:46:39.048Z,5.40
2023-07-25T05:47:39.932Z,6.00
2023-07-25T05:48:39.033Z,5.10
2023-07-25T05:49:38.928Z,6.10
2023-07-25T05:50:38.981Z,7.00
2023-07-25T05:51:38.952Z,6.00
2023-07-25T05:52:39.012Z,7.90
2023-07-25T05:53:38.984Z,5.90
2023-07-25T05:54:38.953Z,5.70
2023-07-25T05:55:39.119Z,5.80
2023-07-25T05:56:40.007Z,6.50
2023-07-25T05:57:38.883Z,6.00
2023-07-25T05:58:39.768Z,5.60
2023-07-25T05:59:39.693Z,4.70
2023-07-25T06:00:39.050Z,5.90
2023-07-25T06:01:39.030Z,5.80
2023-07-25T06:02:39.173Z,5.40
2023-07-25T06:03:39.067Z,7.50
2023-07-25T06:04:38.866Z,7.00
2023-07-25T06:05:38.832Z,4.80
2023-07-25T06:06:38.788Z,5.70
2023-07-25T06:07:38.814Z,5.60
2023-07-25T06:08:39.877Z,5.80
2023-07-25T06:09:38.758Z,4.60
2023-07-25T06:10:38.874Z,6.70
2023-07-25T06:11:39.372Z,5.60
2023-07-25T06:12:38.845Z,6.00
2023-07-25T06:13:38.794Z,7.20
2023-07-25T06:14:38.702Z,7.20
2023-07-25T06:15:38.745Z,5.60
2023-07-25T06:16:38.797Z,7.50
2023-07-25T06:17:38.679Z,6.30
2023-07-25T06:18:39.389Z,5.40
2023-07-25T06:19:38.774Z,5.40
2023-07-25T06:20:38.711Z,6.00
2023-07-25T06:21:39.430Z,6.10
2023-07-25T06:22:38.737Z,6.60
2023-07-25T06:23:38.664Z,7.70
2023-07-25T06:24:38.667Z,6.00
2023-07-25T06:25:38.680Z,6.10
2023-07-25T06:26:38.758Z,5.30
2023-07-25T06:27:38.700Z,6.40
2023-07-25T06:28:38.583Z,5.40
2023-07-25T06:29:38.541Z,5.20
2023-07-25T06:30:39.198Z,5.90
2023-07-25T06:31:38.779Z,6.40
2023-07-25T06:32:38.630Z,6.20
2023-07-25T06:33:39.433Z,5.70
2023-07-25T06:34:38.559Z,6.90
2023-07-25T06:35:38.630Z,5.00
2023-07-25T06:36:38.989Z,6.30
2023-07-25T06:37:38.615Z,6.90
2023-07-25T06:38:40.814Z,5.60
2023-07-25T06:39:38.724Z,6.30
2023-07-25T06:40:38.571Z,5.60
2023-07-25T06:41:39.449Z,5.90
2023-07-25T06:42:38.451Z,6.20
2023-07-25T06:43:38.490Z,6.30
2023-07-25T06:44:38.561Z,6.40
2023-07-25T06:45:38.730Z,6.10
2023-07-25T06:46:39.072Z,6.20
2023-07-25T06:47:38.693Z,6.10
2023-07-25T06:48:39.436Z,5.10
2023-07-25T06:49:38.472Z,6.60
2023-07-25T06:50:39.403Z,7.20
2023-07-25T06:51:38.426Z,5.80
2023-07-25T06:52:38.311Z,6.30
2023-07-25T06:53:38.476Z,5.70
2023-07-25T06:54:39.366Z,6.50
2023-07-25T06:55:38.312Z,6.50
2023-07-25T06:56:38.891Z,6.80
2023-07-25T06:57:38.449Z,6.60
2023-07-25T06:58:38.315Z,7.40
2023-07-25T06:59:38.288Z,6.30
2023-07-25T07:00:38.338Z,6.40
2023-07-25T07:01:38.452Z,5.50
2023-07-25T07:02:38.282Z,6.20
2023-07-25T07:03:38.271Z,6.30
2023-07-25T07:04:38.216Z,7.50
2023-07-25T07:05:38.853Z,6.90
2023-07-25T07:06:38.240Z,6.10
2023-07-25T07:07:39.653Z,6.00
2023-07-25T07:08:38.293Z,7.20
2023-07-25T07:09:38.260Z,5.90
2023-07-25T07:10:38.242Z,5.90
2023-07-25T07:11:38.333Z,6.90
2023-07-25T07:12:38.228Z,5.50
2023-07-25T07:13:38.909Z,6.20
2023-07-25T07:14:38.313Z,6.20
2023-07-25T07:15:38.892Z,6.10
2023-07-25T07:16:39.052Z,7.10
2023-07-25T07:17:38.266Z,5.40
2023-07-25T07:18:38.716Z,6.70
2023-07-25T07:19:38.075Z,5.60
2023-07-25T07:20:38.111Z,5.90
2023-07-25T07:21:38.054Z,5.50
2023-07-25T07:22:38.037Z,5.80
2023-07-25T07:23:38.117Z,6.80
2023-07-25T07:24:38.146Z,6.60
2023-07-25T07:25:38.048Z,6.20
2023-07-25T07:26:38.893Z,5.60
2023-07-25T07:27:38.800Z,6.50
2023-07-25T07:28:38.874Z,6.60
2023-07-25T07:29:38.083Z,6.40
2023-07-25T07:30:38.091Z,5.50
2023-07-25T07:31:37.981Z,6.20
2023-07-25T07:32:38.051Z,5.70
2023-07-25T07:33:37.936Z,6.30
2023-07-25T07:34:37.951Z,6.80
2023-07-25T07:35:38.960Z,6.50
2023-07-25T07:36:38.017Z,6.90
2023-07-25T07:37:37.885Z,6.80
2023-07-25T07:38:38.915Z,6.30
2023-07-25T07:39:38.334Z,6.20
2023-07-25T07:40:38.280Z,6.80
2023-07-25T07:41:37.856Z,6.40
2023-07-25T07:42:37.807Z,6.20
2023-07-25T07:43:37.917Z,6.20
2023-07-25T07:44:37.952Z,6.10
2023-07-25T07:45:38.823Z,6.80
2023-07-25T07:46:37.909Z,6.00
2023-07-25T07:47:38.440Z,5.00
2023-07-25T07:48:39.854Z,6.20
2023-07-25T07:49:37.875Z,6.20
2023-07-25T07:50:37.748Z,7.70
2023-07-25T07:51:37.742Z,7.70
2023-07-25T07:52:42.454Z,6.50
2023-07-25T07:53:37.790Z,5.40
2023-07-25T07:54:37.892Z,7.00
2023-07-25T07:55:38.897Z,6.60
2023-07-25T07:56:37.755Z,6.60
2023-07-25T07:57:37.722Z,5.40
2023-07-25T07:58:37.795Z,6.70
2023-07-25T07:59:37.665Z,6.70
2023-07-25T08:00:37.741Z,6.90
2023-07-25T08:01:40.434Z,6.60
2023-07-25T08:02:37.697Z,6.40
2023-07-25T08:03:37.590Z,6.40
2023-07-25T08:04:37.741Z,6.50
2023-07-25T08:05:37.662Z,6.10
2023-07-25T08:06:37.579Z,7.50
2023-07-25T08:07:37.701Z,5.80
2023-07-25T08:08:38.441Z,6.40
2023-07-25T08:09:39.088Z,7.10
2023-07-25T08:10:37.617Z,7.10
2023-07-25T08:11:37.714Z,8.70
2023-07-25T08:12:37.522Z,6.30
2023-07-25T08:13:38.488Z,7.40
2023-07-25T08:14:37.799Z,7.70
2023-07-25T08:15:37.490Z,7.50
2023-07-25T08:16:38.627Z,7.10
2023-07-25T08:17:37.539Z,6.30
2023-07-25T08:18:38.442Z,7.10
2023-07-25T08:19:37.484Z,6.80
2023-07-25T08:20:37.612Z,7.20
2023-07-25T08:21:37.836Z,6.80
2023-07-25T08:22:37.431Z,7.30
2023-07-25T08:23:38.374Z,6.10
2023-07-25T08:24:37.515Z,6.90
2023-07-25T08:25:37.626Z,6.20
2023-07-25T08:26:37.435Z,6.80
2023-07-25T08:27:37.398Z,6.30
2023-07-25T08:28:41.342Z,7.70
2023-07-25T08:29:37.414Z,6.40
2023-07-25T08:30:37.338Z,7.30
2023-07-25T08:31:37.456Z,8.00
2023-07-25T08:32:37.568Z,7.10
2023-07-25T08:33:37.356Z,8.40
2023-07-25T08:34:37.327Z,7.20
2023-07-25T08:35:38.318Z,5.60
2023-07-25T08:36:37.322Z,6.90
2023-07-25T08:37:37.315Z,7.00
2023-07-25T08:38:38.993Z,8.10
2023-07-25T08:39:37.321Z,9.40
2023-07-25T08:40:37.290Z,9.50
2023-07-25T08:41:37.260Z,7.40
2023-07-25T08:42:37.374Z,6.90
2023-07-25T08:43:37.340Z,8.40
2023-07-25T08:44:37.368Z,7.90
2023-07-25T08:45:37.911Z,8.40
2023-07-25T08:46:37.392Z,7.50
2023-07-25T08:47:38.030Z,6.60
2023-07-25T08:48:38.403Z,7.00
2023-07-25T08:49:37.306Z,7.80
2023-07-25T08:50:37.251Z,9.20
2023-07-25T08:51:37.243Z,9.60
2023-07-25T08:52:37.104Z,8.60
2023-07-25T08:53:37.344Z,7.20
2023-07-25T08:54:37.139Z,8.40
2023-07-25T08:55:37.982Z,7.70
2023-07-25T08:56:37.896Z,7.80
2023-07-25T08:57:37.136Z,10.00
2023-07-25T08:58:39.101Z,7.70
2023-07-25T08:59:37.440Z,8.10
2023-07-25T09:00:37.190Z,7.20
2023-07-25T09:01:37.181Z,7.60
2023-07-25T09:02:37.252Z,9.20
2023-07-25T09:03:37.214Z,9.30
2023-07-25T09:04:37.016Z,9.90
2023-07-25T09:05:37.341Z,7.50
2023-07-25T09:06:37.163Z,7.60
2023-07-25T09:07:37.958Z,8.20
2023-07-25T09:08:38.006Z,8.20
2023-07-25T09:09:37.877Z,7.40
2023-07-25T09:10:37.441Z,10.10
2023-07-25T09:11:36.994Z,10.60
2023-07-25T09:12:38.900Z,10.70
2023-07-25T09:13:37.333Z,8.80
2023-07-25T09:14:36.960Z,8.10
2023-07-25T09:15:37.014Z,6.10
2023-07-25T09:16:37.001Z,9.60
2023-07-25T09:17:39.903Z,10.80
2023-07-25T09:18:38.004Z,8.60
2023-07-25T09:19:37.358Z,9.50
2023-07-25T09:20:36.938Z,8.40
2023-07-25T09:21:36.873Z,10.00
2023-07-25T09:22:36.840Z,8.60
2023-07-25T09:23:36.843Z,13.70
2023-07-25T09:24:36.948Z,7.50
2023-07-25T09:25:37.836Z,9.10
2023-07-25T09:26:36.820Z,9.00
2023-07-25T09:27:36.980Z,9.90
2023-07-25T09:28:36.963Z,8.50
2023-07-25T09:29:36.775Z,8.70
2023-07-25T09:30:36.848Z,8.50
2023-07-25T09:31:36.794Z,9.70
2023-07-25T09:32:36.939Z,6.90
2023-07-25T09:33:36.785Z,10.80
2023-07-25T09:34:38.692Z,7.80
2023-07-25T09:35:36.827Z,8.60
2023-07-25T09:36:36.793Z,11.70
2023-07-25T09:37:36.962Z,11.30
2023-07-25T09:38:37.417Z,9.00
2023-07-25T09:39:36.739Z,9.90
2023-07-25T09:40:36.698Z,10.60
2023-07-25T09:41:36.676Z,8.80
2023-07-25T09:42:36.695Z,14.50
2023-07-25T09:43:36.610Z,10.20
2023-07-25T09:44:36.858Z,9.30
2023-07-25T09:45:36.805Z,10.90
2023-07-25T09:46:36.733Z,8.60
2023-07-25T09:47:36.607Z,9.50
2023-07-25T09:48:36.580Z,11.20
2023-07-25T09:49:37.393Z,12.00
2023-07-25T09:50:36.713Z,10.40
2023-07-25T09:51:36.950Z,8.60
2023-07-25T09:52:37.440Z,8.30
2023-07-25T09:53:36.505Z,10.10
2023-07-25T09:54:37.435Z,12.20
2023-07-25T09:55:36.581Z,8.30
2023-07-25T09:56:37.953Z,9.30
2023-07-25T09:57:36.682Z,11.10
2023-07-25T09:58:42.276Z,13.50
2023-07-25T09:59:38.448Z,10.50
2023-07-25T10:00:36.547Z,10.50
2023-07-25T10:01:36.907Z,11.20
2023-07-25T10:02:39.383Z,10.70
2023-07-25T10:03:36.523Z,10.40
2023-07-25T10:04:36.549Z,9.80
2023-07-25T10:05:36.413Z,11.30
2023-07-25T10:06:36.465Z,11.50
2023-07-25T10:07:36.757Z,9.10
2023-07-25T10:08:36.416Z,11.00
2023-07-25T10:09:39.559Z,10.50
2023-07-25T10:10:37.481Z,9.90
2023-07-25T10:11:36.551Z,9.10
2023-07-25T10:12:36.592Z,9.00
2023-07-25T10:13:36.320Z,10.10
2023-07-25T10:14:36.320Z,12.80
2023-07-25T10:15:36.446Z,8.20
2023-07-25T10:16:36.928Z,8.50
2023-07-25T10:17:36.320Z,10.00
2023-07-25T10:18:36.412Z,11.90
2023-07-25T10:21:15.682Z,9.20
2023-07-25T10:21:21.922Z,10.30
2023-07-25T10:22:21.350Z,10.00
2023-07-25T10:23:21.758Z,10.40
2023-07-25T10:24:21.176Z,9.80
2023-07-25T10:25:21.154Z,9.40
2023-07-25T10:26:21.176Z,11.10
2023-07-25T10:27:21.165Z,9.40
2023-07-25T10:28:21.156Z,12.20
2023-07-25T10:29:22.424Z,11.00
2023-07-25T10:30:21.046Z,11.70
2023-07-25T10:31:21.975Z,10.50
2023-07-25T10:32:21.142Z,10.70
2023-07-25T10:33:21.178Z,9.10
2023-07-25T10:34:21.040Z,11.40
2023-07-25T10:35:21.111Z,9.80
2023-07-25T10:36:21.381Z,10.60
2023-07-25T10:37:21.153Z,9.60
2023-07-25T10:38:21.938Z,7.90
2023-07-25T10:39:20.980Z,9.10
2023-07-25T10:40:21.068Z,9.00
2023-07-25T10:41:20.975Z,8.20
2023-07-25T10:42:21.423Z,7.80
2023-07-25T10:43:20.955Z,10.70
2023-07-25T10:44:20.943Z,8.00
2023-07-25T10:45:21.015Z,11.60
2023-07-25T10:46:20.964Z,9.20
2023-07-25T10:47:20.900Z,8.10
2023-07-25T10:48:21.071Z,11.20
2023-07-25T10:49:21.447Z,10.30
2023-07-25T10:50:21.442Z,9.10
2023-07-25T10:51:20.997Z,8.30
2023-07-25T10:52:20.786Z,11.30
2023-07-25T10:53:20.785Z,10.40
2023-07-25T10:54:20.768Z,9.50
2023-07-25T10:55:21.433Z,7.60
2023-07-25T10:56:20.864Z,10.30
2023-07-25T10:57:20.823Z,10.60
2023-07-25T10:58:20.879Z,8.10
2023-07-25T10:59:21.449Z,6.60
2023-07-25T11:00:21.527Z,9.40
2023-07-25T11:01:21.529Z,8.40
2023-07-25T11:02:20.894Z,10.70
2023-07-25T11:03:20.843Z,10.90
2023-07-25T11:04:20.816Z,8.60
2023-07-25T11:05:20.944Z,10.30
2023-07-25T11:06:20.677Z,7.70
2023-07-25T11:07:20.728Z,10.80
2023-07-25T11:08:20.947Z,9.30
2023-07-25T11:09:20.645Z,9.20
2023-07-25T11:10:20.667Z,10.80
2023-07-25T11:11:20.884Z,7.40
2023-07-25T11:12:20.689Z,10.00
2023-07-25T11:13:20.609Z,8.10
2023-07-25T11:14:21.552Z,9.40
2023-07-25T11:15:32.144Z,9.70
2023-07-25T11:16:20.748Z,8.70
2023-07-25T11:17:20.732Z,9.80
2023-07-25T11:18:20.558Z,9.30
2023-07-25T11:19:20.624Z,9.00
2023-07-25T11:20:20.614Z,8.00
2023-07-25T11:21:20.825Z,12.60
2023-07-25T11:22:20.693Z,7.60
2023-07-25T11:23:21.442Z,10.40
2023-07-25T11:24:21.712Z,15.20
2023-07-25T11:25:20.536Z,7.20
2023-07-25T11:26:20.546Z,7.30
2023-07-25T11:27:20.541Z,6.70
2023-07-25T11:28:20.492Z,9.00
2023-07-25T11:29:21.497Z,7.90
2023-07-25T11:30:20.506Z,6.60
2023-07-25T11:31:20.592Z,9.10
2023-07-25T11:32:21.492Z,10.00
2023-07-25T11:33:20.490Z,8.20
2023-07-25T11:34:20.500Z,7.70
2023-07-25T11:35:20.475Z,7.60
2023-07-25T11:36:20.419Z,9.50
2023-07-25T11:37:21.393Z,8.60
2023-07-25T11:38:20.588Z,8.10
2023-07-25T11:39:20.368Z,6.90
2023-07-25T11:40:20.370Z,7.70
2023-07-25T11:41:21.037Z,7.90
2023-07-25T11:42:20.295Z,8.40
2023-07-25T11:43:20.417Z,8.20
2023-07-25T11:44:20.342Z,7.80
2023-07-25T11:45:20.575Z,9.20
2023-07-25T11:46:20.314Z,8.40
2023-07-25T11:47:20.266Z,9.20
2023-07-25T11:48:20.288Z,7.20
2023-07-25T11:49:35.713Z,7.60
2023-07-25T11:50:26.339Z,7.80
2023-07-25T11:51:20.264Z,8.90
2023-07-25T11:52:20.278Z,7.40
2023-07-25T11:53:20.228Z,6.50
2023-07-25T11:54:20.269Z,8.00
2023-07-25T11:55:20.192Z,7.70
2023-07-25T11:56:20.172Z,8.60
2023-07-25T11:57:20.179Z,9.10
2023-07-25T11:58:21.066Z,6.20
2023-07-25T11:59:20.209Z,5.00
2023-07-25T12:00:20.126Z,8.30
2023-07-25T12:01:20.181Z,6.70
2023-07-25T12:02:20.167Z,7.20
2023-07-25T12:03:20.075Z,6.20
2023-07-25T12:04:20.277Z,7.30
2023-07-25T12:05:20.112Z,8.00
2023-07-25T12:06:20.152Z,5.70
2023-07-25T12:07:22.420Z,8.20
2023-07-25T12:08:21.011Z,7.00
2023-07-25T12:09:20.082Z,5.80
2023-07-25T12:10:20.052Z,7.20
2023-07-25T12:11:20.945Z,8.50
2023-07-25T12:12:20.097Z,7.00
2023-07-25T12:13:20.063Z,8.60
2023-07-25T12:14:19.991Z,7.10
2023-07-25T12:15:19.993Z,7.90
2023-07-25T12:16:20.080Z,6.00
2023-07-25T12:17:20.084Z,9.20
2023-07-25T12:18:19.969Z,8.80
2023-07-25T12:19:20.093Z,6.60
2023-07-25T12:20:20.072Z,9.80
2023-07-25T12:21:20.313Z,7.60
2023-07-25T12:22:20.040Z,6.30
2023-07-25T12:23:19.938Z,7.70
2023-07-25T12:24:19.959Z,7.30
2023-07-25T12:25:19.923Z,8.60
2023-07-25T12:26:19.945Z,7.50
2023-07-25T12:27:20.057Z,9.20
2023-07-25T12:28:20.033Z,7.30
2023-07-25T12:29:19.876Z,10.40
2023-07-25T12:30:19.852Z,7.60
2023-07-25T12:31:19.891Z,8.00
2023-07-25T12:32:19.856Z,7.50
2023-07-25T12:33:20.113Z,7.60
2023-07-25T12:34:19.823Z,8.00
2023-07-25T12:35:19.813Z,8.80
2023-07-25T12:36:20.437Z,9.10
2023-07-25T12:37:19.930Z,8.90
2023-07-25T12:38:19.866Z,10.20
2023-07-25T12:39:20.353Z,9.90
2023-07-25T12:40:19.765Z,10.20
2023-07-25T12:41:19.768Z,8.80
2023-07-25T12:42:19.713Z,8.60
2023-07-25T12:43:20.753Z,7.50
2023-07-25T12:44:19.760Z,8.50
2023-07-25T12:45:19.679Z,8.00
2023-07-25T12:46:19.775Z,7.70
2023-07-25T12:47:19.741Z,7.90
2023-07-25T12:48:20.484Z,9.40
2023-07-25T12:49:19.679Z,8.00
2023-07-25T12:50:19.677Z,8.90
2023-07-25T12:51:19.666Z,8.70
2023-07-25T12:52:19.649Z,8.30
2023-07-25T12:53:19.680Z,9.20
2023-07-25T12:54:19.625Z,11.60
2023-07-25T12:55:19.603Z,8.40
2023-07-25T12:56:19.621Z,8.80
2023-07-25T12:57:19.615Z,9.50
2023-07-25T12:58:19.766Z,7.30
2023-07-25T12:59:19.561Z,7.80
2023-07-25T13:00:19.555Z,8.20
2023-07-25T13:01:19.626Z,7.90
2023-07-25T13:02:19.661Z,8.40
2023-07-25T13:03:20.445Z,8.80
2023-07-25T13:04:19.772Z,9.00
2023-07-25T13:05:20.533Z,8.10
2023-07-25T13:06:20.485Z,9.20
2023-07-25T13:07:19.544Z,9.00
2023-07-25T13:08:19.515Z,8.40
2023-07-25T13:09:19.458Z,11.10
2023-07-25T13:10:19.484Z,7.90
2023-07-25T13:11:19.545Z,7.20
2023-07-25T13:12:19.826Z,8.20
2023-07-25T13:13:19.409Z,9.30
2023-07-25T13:14:19.389Z,7.80
2023-07-25T13:15:19.420Z,7.70
2023-07-25T13:16:19.471Z,7.00
2023-07-25T13:17:19.387Z,8.80